メインページ
METAR-TAF:

METAR-TAF

空港 :

チュニス, チュニジア

チュニス・カルタゴ国際空港

緯度: 36-50N, 経度: 010-14E, 海抜: 3m

現時点の気象観測

当レポートは29分前の05:30(UTC)に作成
西/南西の風 7kt、南/南西から西/北西の間で変化する
気温 26°C
湿度 58%
気圧 1015 hPa
視程10km以上
1,500メートル以下は雲なし、積乱雲なし

METAR: DTTA 200530Z 25007KT 210V290 CAVOK 26/17 Q1015 NOSIG

時間: 06:59 (05:59 UTC)

予報

当レポートは6時間54分前の23:05(UTC)に作成
予報は20日の 00時(UTC)から 20日の 24時(UTC)まで有効
北西の風 6kt
視程10km以上
1,500メートル以下は雲なし、積乱雲なし
20日の 12時(UTC)から 20日の 18時(UTC)まで一時的に
北西の風 18kt

TAF: DTTA 192305Z 2000/2024 32006KT CAVOK TEMPO 2012/2018 32018KT

4,000以上の空港の気象観測と天気予報(METAR報とTAF報)

利用可能な観測所は地図上に黄色い丸と赤い丸で示す。

丸の上にカーソルを重ねると観測所名を参照できる。

次にクリックすると気象観測と天気予報を参照できる。

マップの切り替え:黒色「×」印の緑ボタンをクリックして拡大、「-」印の緑ボタンをクリックして縮小、緑色の三角印をクリックして隣りの地図に切り替え


METAR-TAF: